createdAt,value
2018-12-09T00:02:18.758Z,0.93
2018-12-09T00:04:47.335Z,0.60
2018-12-09T00:07:15.750Z,0.90
2018-12-09T00:09:44.179Z,0.80
2018-12-09T00:12:12.784Z,1.13
2018-12-09T00:14:41.380Z,0.70
2018-12-09T00:17:09.808Z,0.83
2018-12-09T00:19:38.253Z,0.93
2018-12-09T00:22:06.703Z,0.63
2018-12-09T00:24:35.179Z,0.70
2018-12-09T00:27:03.603Z,0.80
2018-12-09T00:29:32.039Z,0.70
2018-12-09T00:32:00.505Z,0.60
2018-12-09T00:34:28.973Z,0.60
2018-12-09T00:36:57.382Z,0.50
2018-12-09T00:39:25.826Z,0.80
2018-12-09T00:41:54.240Z,0.40
2018-12-09T00:44:22.767Z,0.90
2018-12-09T00:46:51.197Z,0.60
2018-12-09T00:49:19.666Z,0.90
2018-12-09T00:51:48.091Z,0.60
2018-12-09T00:54:16.499Z,0.70
2018-12-09T00:56:44.943Z,0.50
2018-12-09T00:59:13.415Z,0.60
2018-12-09T01:01:41.845Z,0.47
2018-12-09T01:04:10.304Z,0.77
2018-12-09T01:06:38.716Z,0.70
2018-12-09T01:09:07.155Z,0.87
2018-12-09T01:11:35.619Z,1.10
2018-12-09T01:14:04.391Z,1.10
2018-12-09T01:16:32.863Z,0.90
2018-12-09T01:19:01.276Z,0.87
2018-12-09T01:21:29.709Z,1.17
2018-12-09T01:23:58.121Z,1.23
2018-12-09T01:26:27.611Z,1.00
2018-12-09T01:28:56.060Z,0.87
2018-12-09T01:31:24.515Z,1.00
2018-12-09T01:33:53.067Z,1.13
2018-12-09T01:36:21.569Z,0.73
2018-12-09T01:38:50.015Z,1.20
2018-12-09T01:41:18.431Z,0.90
2018-12-09T01:43:46.879Z,0.87
2018-12-09T01:46:15.349Z,0.77
2018-12-09T01:48:44.724Z,0.90
2018-12-09T01:51:13.179Z,0.80
2018-12-09T01:54:15.152Z,0.90
2018-12-09T01:56:43.875Z,0.70
2018-12-09T01:59:13.406Z,0.87
2018-12-09T02:01:42.080Z,0.40
2018-12-09T02:04:10.595Z,0.57
2018-12-09T02:06:39.069Z,0.97
2018-12-09T02:09:08.771Z,0.60
2018-12-09T02:11:37.264Z,1.03
2018-12-09T02:14:05.695Z,1.10
2018-12-09T02:16:35.099Z,1.37
2018-12-09T02:19:19.508Z,1.10
2018-12-09T02:21:48.322Z,1.50
2018-12-09T02:24:17.327Z,1.30
2018-12-09T02:26:46.415Z,1.00
2018-12-09T02:29:14.857Z,1.50
2018-12-09T02:31:43.667Z,1.37
2018-12-09T02:34:12.193Z,1.07
2018-12-09T02:36:41.388Z,0.90
2018-12-09T02:39:11.353Z,0.60
2018-12-09T02:41:39.836Z,0.60
2018-12-09T02:44:08.252Z,0.60
2018-12-09T02:46:37.518Z,0.90
2018-12-09T02:49:06.000Z,0.40
2018-12-09T02:51:34.986Z,0.60
2018-12-09T02:54:04.886Z,0.83
2018-12-09T02:56:33.465Z,0.70
2018-12-09T02:59:03.267Z,0.90
2018-12-09T03:01:31.687Z,0.80
2018-12-09T03:04:00.146Z,0.83
2018-12-09T03:06:28.684Z,0.77
2018-12-09T03:08:57.167Z,0.77
2018-12-09T03:11:25.603Z,0.77
2018-12-09T03:13:54.057Z,1.10
2018-12-09T03:16:22.607Z,1.27
2018-12-09T03:18:51.068Z,1.03
2018-12-09T03:21:19.483Z,1.17
2018-12-09T03:23:47.951Z,1.10
2018-12-09T03:26:16.367Z,1.17
2018-12-09T03:28:44.821Z,0.90
2018-12-09T03:31:13.976Z,0.80
2018-12-09T03:33:42.380Z,0.87
2018-12-09T03:36:10.852Z,1.03
2018-12-09T03:38:39.267Z,1.07
2018-12-09T03:41:07.751Z,1.07
2018-12-09T03:43:36.229Z,0.77
2018-12-09T03:46:04.695Z,0.97
2018-12-09T03:48:33.124Z,0.83
2018-12-09T03:51:01.568Z,0.80
2018-12-09T03:53:29.977Z,0.50
2018-12-09T03:55:58.430Z,0.40
2018-12-09T03:58:27.983Z,0.30
2018-12-09T04:00:56.518Z,0.40
2018-12-09T04:03:25.118Z,0.40
2018-12-09T04:05:54.249Z,0.40
2018-12-09T04:08:22.717Z,0.50
2018-12-09T04:10:51.171Z,0.40
2018-12-09T04:13:19.620Z,0.40
2018-12-09T04:15:48.162Z,0.60
2018-12-09T04:18:16.625Z,0.60
2018-12-09T04:20:45.032Z,0.50
2018-12-09T04:23:13.477Z,0.33
2018-12-09T04:25:41.935Z,0.40
2018-12-09T04:28:10.389Z,0.60
2018-12-09T04:30:38.852Z,0.57
2018-12-09T04:33:07.283Z,0.40
2018-12-09T04:35:35.728Z,0.50
2018-12-09T04:38:04.819Z,0.60
2018-12-09T04:40:34.040Z,0.47
2018-12-09T04:43:02.456Z,0.63
2018-12-09T04:45:31.032Z,0.80
2018-12-09T04:47:59.476Z,0.87
2018-12-09T04:50:27.907Z,1.10
2018-12-09T04:52:56.330Z,1.20
2018-12-09T04:55:24.787Z,0.67
2018-12-09T04:57:53.215Z,0.70
2018-12-09T05:00:56.504Z,0.60
2018-12-09T05:03:25.164Z,0.53
2018-12-09T05:05:53.711Z,0.90
2018-12-09T05:08:22.177Z,2.23
2018-12-09T05:10:50.659Z,0.73
2018-12-09T05:13:19.134Z,0.40
2018-12-09T05:15:47.554Z,0.53
2018-12-09T05:18:15.995Z,1.40
2018-12-09T05:20:45.323Z,2.23
2018-12-09T05:23:13.779Z,2.00
2018-12-09T05:25:42.183Z,2.20
2018-12-09T05:28:10.646Z,1.20
2018-12-09T05:30:39.091Z,0.80
2018-12-09T05:33:08.353Z,1.07
2018-12-09T05:35:36.875Z,0.63
2018-12-09T05:38:05.323Z,0.73
2018-12-09T05:40:34.030Z,8.83
2018-12-09T05:43:02.466Z,2.70
2018-12-09T05:45:30.914Z,2.00
2018-12-09T05:47:59.325Z,5.30
2018-12-09T05:50:27.766Z,3.07
2018-12-09T05:52:56.247Z,5.73
2018-12-09T05:55:24.665Z,2.37
2018-12-09T05:57:53.148Z,1.03
2018-12-09T06:00:21.717Z,4.03
2018-12-09T06:02:57.113Z,4.40
2018-12-09T06:05:25.671Z,4.67
2018-12-09T06:07:54.283Z,4.70
2018-12-09T06:10:22.843Z,3.73
2018-12-09T06:12:51.336Z,3.80
2018-12-09T06:15:19.777Z,4.03
2018-12-09T06:17:48.191Z,3.67
2018-12-09T06:20:16.641Z,1.80
2018-12-09T06:22:45.091Z,2.13
2018-12-09T06:25:13.711Z,2.30
2018-12-09T06:27:42.210Z,1.87
2018-12-09T06:30:11.864Z,0.80
2018-12-09T06:32:40.446Z,0.70
2018-12-09T06:35:09.374Z,0.40
2018-12-09T06:37:37.928Z,0.43
2018-12-09T06:40:07.000Z,0.30
2018-12-09T06:42:36.466Z,0.30
2018-12-09T06:45:06.040Z,0.40
2018-12-09T06:47:34.579Z,0.30
2018-12-09T06:50:03.526Z,0.30
2018-12-09T06:52:31.939Z,0.20
2018-12-09T06:55:00.523Z,0.33
2018-12-09T06:57:29.104Z,0.10
2018-12-09T06:59:58.235Z,0.33
2018-12-09T07:02:26.684Z,0.30
2018-12-09T07:04:55.115Z,0.50
2018-12-09T07:07:24.527Z,0.77
2018-12-09T07:09:52.972Z,1.90
2018-12-09T07:12:22.115Z,0.30
2018-12-09T07:14:50.693Z,0.90
2018-12-09T07:17:20.676Z,0.40
2018-12-09T07:19:49.164Z,0.80
2018-12-09T07:22:17.615Z,0.20
2018-12-09T07:24:46.147Z,0.20
2018-12-09T07:27:14.691Z,0.30
2018-12-09T07:29:43.187Z,0.60
2018-12-09T07:32:11.674Z,2.20
2018-12-09T07:34:40.192Z,0.80
2018-12-09T07:37:08.803Z,0.20
2018-12-09T07:39:37.363Z,0.50
2018-12-09T07:42:05.883Z,0.60
2018-12-09T07:44:34.331Z,0.50
2018-12-09T07:47:02.875Z,0.30
2018-12-09T07:49:31.389Z,0.30
2018-12-09T07:52:00.839Z,0.40
2018-12-09T07:54:30.372Z,0.23
2018-12-09T07:56:58.882Z,0.40
2018-12-09T07:59:27.395Z,0.40
2018-12-09T08:01:56.031Z,0.60
2018-12-09T08:04:24.579Z,0.33
2018-12-09T08:06:54.235Z,3.40
2018-12-09T08:09:23.686Z,3.93
2018-12-09T08:11:52.167Z,0.30
2018-12-09T08:14:20.627Z,0.40
2018-12-09T08:16:49.183Z,0.40
2018-12-09T08:19:17.861Z,0.40
2018-12-09T08:21:46.446Z,0.50
2018-12-09T08:24:14.857Z,0.60
2018-12-09T08:26:44.450Z,0.60
2018-12-09T08:29:12.951Z,0.30
2018-12-09T08:31:41.436Z,1.23
2018-12-09T08:34:10.720Z,0.90
2018-12-09T08:36:40.034Z,0.90
2018-12-09T08:39:09.376Z,0.77
2018-12-09T08:41:40.015Z,1.00
2018-12-09T08:44:08.495Z,0.60
2018-12-09T08:46:36.939Z,0.93
2018-12-09T08:49:05.451Z,0.73
2018-12-09T08:51:33.899Z,0.73
2018-12-09T08:54:03.889Z,0.73
2018-12-09T08:56:32.424Z,0.80
2018-12-09T08:59:00.924Z,0.83
2018-12-09T09:01:29.477Z,1.10
2018-12-09T09:03:57.935Z,2.30
2018-12-09T09:06:26.463Z,1.80
2018-12-09T09:08:55.926Z,3.13
2018-12-09T09:11:25.195Z,7.67
2018-12-09T09:13:53.762Z,2.33
2018-12-09T09:16:23.244Z,2.63
2018-12-09T09:18:52.039Z,3.00
2018-12-09T09:21:20.488Z,3.00
2018-12-09T09:23:49.094Z,1.00
2018-12-09T09:26:19.203Z,1.23
2018-12-09T09:28:47.847Z,2.03
2018-12-09T09:31:16.397Z,1.20
2018-12-09T09:33:45.040Z,1.13
2018-12-09T09:36:14.287Z,0.70
2018-12-09T09:38:42.777Z,1.00
2018-12-09T09:41:11.207Z,0.83
2018-12-09T09:43:39.815Z,0.73
2018-12-09T09:46:08.271Z,0.53
2018-12-09T09:48:36.759Z,0.90
2018-12-09T09:51:05.311Z,0.50
2018-12-09T09:53:33.812Z,0.60
2018-12-09T09:56:03.326Z,0.77
2018-12-09T09:58:31.971Z,0.43
2018-12-09T10:01:01.408Z,1.10
2018-12-09T10:03:31.862Z,0.60
2018-12-09T10:06:00.326Z,1.23
2018-12-09T10:08:28.832Z,1.10
2018-12-09T10:10:57.304Z,1.07
2018-12-09T10:13:25.908Z,0.90
2018-12-09T10:15:54.380Z,0.87
2018-12-09T10:18:22.889Z,1.00
2018-12-09T10:20:51.444Z,0.70
2018-12-09T10:23:19.958Z,0.87
2018-12-09T10:25:48.480Z,1.00
2018-12-09T10:28:16.960Z,0.87
2018-12-09T10:30:46.823Z,0.60
2018-12-09T10:33:15.520Z,1.10
2018-12-09T10:35:44.039Z,1.00
2018-12-09T10:38:12.636Z,0.80
2018-12-09T10:40:41.259Z,0.70
2018-12-09T10:43:09.788Z,0.50
2018-12-09T10:45:38.300Z,1.10
2018-12-09T10:48:06.772Z,0.93
2018-12-09T10:50:35.297Z,0.97
2018-12-09T10:53:03.847Z,0.80
2018-12-09T10:55:32.339Z,1.00
2018-12-09T10:58:00.928Z,0.60
2018-12-09T11:00:34.868Z,1.30
2018-12-09T11:03:03.387Z,1.00
2018-12-09T11:05:31.862Z,0.80
2018-12-09T11:08:01.323Z,0.80
2018-12-09T11:10:30.772Z,0.73
2018-12-09T11:12:59.247Z,0.93
2018-12-09T11:15:27.795Z,0.90
2018-12-09T11:17:57.299Z,0.90
2018-12-09T11:20:25.877Z,0.90
2018-12-09T11:22:55.463Z,0.80
2018-12-09T11:25:24.008Z,0.63
2018-12-09T11:27:52.559Z,0.93
2018-12-09T11:30:21.212Z,0.67
2018-12-09T11:32:49.659Z,1.00
2018-12-09T11:35:18.144Z,0.97
2018-12-09T11:37:46.668Z,1.10
2018-12-09T11:40:15.151Z,0.90
2018-12-09T11:42:43.628Z,0.70
2018-12-09T11:45:12.067Z,1.40
2018-12-09T11:47:40.723Z,1.00
2018-12-09T11:50:09.859Z,1.13
2018-12-09T11:52:38.511Z,0.80
2018-12-09T11:55:07.047Z,1.60
2018-12-09T11:57:36.567Z,1.50
2018-12-09T12:00:09.515Z,2.10
2018-12-09T12:02:38.037Z,1.57
2018-12-09T12:05:07.604Z,1.30
2018-12-09T12:07:36.080Z,1.70
2018-12-09T12:10:05.651Z,1.30
2018-12-09T12:12:34.163Z,2.13
2018-12-09T12:15:02.783Z,4.20
2018-12-09T12:17:31.276Z,7.00
2018-12-09T12:19:59.703Z,3.60
2018-12-09T12:22:28.243Z,3.67
2018-12-09T12:24:56.675Z,4.83
2018-12-09T12:27:25.359Z,4.57
2018-12-09T12:29:53.901Z,2.33
2018-12-09T12:32:22.571Z,2.30
2018-12-09T12:34:51.073Z,1.73
2018-12-09T12:37:19.592Z,2.10
2018-12-09T12:39:48.076Z,1.77
2018-12-09T12:42:16.596Z,1.73
2018-12-09T12:44:45.189Z,0.90
2018-12-09T12:47:14.798Z,0.77
2018-12-09T12:49:43.264Z,0.80
2018-12-09T12:52:11.950Z,0.77
2018-12-09T12:54:41.455Z,0.70
2018-12-09T12:57:09.939Z,0.70
2018-12-09T12:59:38.500Z,0.87
2018-12-09T13:02:07.011Z,1.00
2018-12-09T13:04:35.567Z,1.17
2018-12-09T13:07:04.115Z,1.23
2018-12-09T13:09:32.685Z,1.03
2018-12-09T13:12:01.265Z,0.93
2018-12-09T13:14:29.831Z,1.17
2018-12-09T13:16:58.307Z,1.10
2018-12-09T13:19:26.796Z,0.73
2018-12-09T13:21:55.275Z,0.90
2018-12-09T13:24:23.696Z,0.73
2018-12-09T13:26:52.335Z,0.80
2018-12-09T13:29:20.804Z,1.10
2018-12-09T13:31:49.255Z,1.03
2018-12-09T13:34:17.784Z,1.20
2018-12-09T13:36:46.199Z,1.50
2018-12-09T13:39:14.843Z,1.70
2018-12-09T13:41:43.284Z,1.57
2018-12-09T13:44:11.803Z,1.87
2018-12-09T13:46:40.272Z,1.40
2018-12-09T13:49:08.983Z,1.20
2018-12-09T13:51:37.492Z,1.27
2018-12-09T13:54:06.163Z,1.03
2018-12-09T13:56:34.695Z,1.57
2018-12-09T13:59:03.169Z,1.30
2018-12-09T14:01:31.706Z,1.27
2018-12-09T14:04:00.367Z,1.10
2018-12-09T14:06:29.579Z,1.10
2018-12-09T14:08:58.011Z,1.43
2018-12-09T14:11:26.527Z,1.30
2018-12-09T14:13:54.989Z,1.03
2018-12-09T14:16:23.978Z,1.10
2018-12-09T14:18:52.563Z,1.30
2018-12-09T14:21:21.027Z,1.43
2018-12-09T14:23:49.554Z,1.50
2018-12-09T14:26:18.035Z,1.43
2018-12-09T14:28:46.831Z,1.63
2018-12-09T14:31:15.253Z,1.50
2018-12-09T14:33:44.771Z,1.30
2018-12-09T14:36:13.279Z,1.53
2018-12-09T14:38:41.824Z,1.63
2018-12-09T14:41:11.363Z,1.87
2018-12-09T14:43:40.828Z,1.47
2018-12-09T14:46:09.349Z,1.20
2018-12-09T14:48:37.795Z,1.70
2018-12-09T14:51:06.575Z,1.90
2018-12-09T14:53:35.107Z,1.80
2018-12-09T14:56:03.562Z,1.60
2018-12-09T14:58:32.094Z,2.23
2018-12-09T15:01:00.543Z,2.17
2018-12-09T15:03:29.036Z,2.10
2018-12-09T15:05:57.525Z,2.23
2018-12-09T15:08:26.046Z,3.30
2018-12-09T15:10:54.816Z,2.73
2018-12-09T15:13:23.367Z,2.00
2018-12-09T15:15:51.868Z,3.80
2018-12-09T15:18:20.291Z,4.97
2018-12-09T15:20:48.835Z,1.87
2018-12-09T15:23:17.560Z,1.80
2018-12-09T15:25:46.035Z,1.90
2018-12-09T15:28:14.556Z,2.10
2018-12-09T15:30:43.011Z,2.07
2018-12-09T15:33:11.527Z,1.60
2018-12-09T15:35:40.111Z,2.10
2018-12-09T15:38:08.818Z,1.97
2018-12-09T15:40:37.280Z,2.00
2018-12-09T15:43:06.748Z,1.77
2018-12-09T15:45:35.255Z,1.60
2018-12-09T15:48:03.727Z,1.60
2018-12-09T15:50:33.240Z,1.47
2018-12-09T15:53:02.765Z,2.47
2018-12-09T15:55:32.223Z,1.70
2018-12-09T15:58:00.742Z,3.40
2018-12-09T16:00:35.175Z,1.37
2018-12-09T16:03:04.268Z,1.43
2018-12-09T16:05:32.713Z,1.30
2018-12-09T16:08:01.211Z,1.20
2018-12-09T16:10:29.671Z,1.67
2018-12-09T16:12:58.209Z,1.70
2018-12-09T16:15:26.619Z,1.73
2018-12-09T16:17:55.123Z,1.30
2018-12-09T16:20:23.606Z,1.10
2018-12-09T16:22:52.127Z,1.30
2018-12-09T16:25:20.546Z,1.20
2018-12-09T16:27:50.103Z,0.97
2018-12-09T16:30:18.663Z,1.30
2018-12-09T16:32:47.154Z,1.07
2018-12-09T16:35:15.644Z,1.47
2018-12-09T16:37:44.098Z,1.27
2018-12-09T16:40:12.504Z,0.93
2018-12-09T16:42:40.925Z,1.30
2018-12-09T16:45:09.873Z,1.27
2018-12-09T16:47:38.325Z,1.10
2018-12-09T16:50:07.237Z,1.30
2018-12-09T16:52:35.647Z,1.23
2018-12-09T16:55:04.223Z,1.30
2018-12-09T16:57:32.643Z,1.03
2018-12-09T17:00:01.101Z,0.90
2018-12-09T17:02:29.512Z,3.47
2018-12-09T17:04:57.971Z,1.57
2018-12-09T17:07:26.454Z,1.40
2018-12-09T17:09:54.917Z,1.13
2018-12-09T17:12:23.336Z,1.30
2018-12-09T17:14:51.796Z,1.30
2018-12-09T17:17:20.219Z,1.10
2018-12-09T17:19:48.637Z,1.60
2018-12-09T17:22:17.072Z,2.23
2018-12-09T17:24:45.540Z,15.90
2018-12-09T17:27:14.057Z,10.97
2018-12-09T17:29:42.499Z,3.43
2018-12-09T17:32:11.015Z,3.30
2018-12-09T17:34:39.463Z,2.40
2018-12-09T17:37:08.010Z,2.80
2018-12-09T17:39:37.547Z,2.50
2018-12-09T17:42:07.099Z,2.47
2018-12-09T17:44:35.647Z,2.10
2018-12-09T17:47:05.805Z,1.70
2018-12-09T17:49:34.263Z,2.30
2018-12-09T17:52:04.584Z,1.83
2018-12-09T17:54:33.080Z,1.87
2018-12-09T17:57:01.539Z,1.57
2018-12-09T17:59:31.251Z,3.33
2018-12-09T18:02:00.087Z,2.33
2018-12-09T18:04:33.269Z,1.20
2018-12-09T18:07:02.859Z,1.60
2018-12-09T18:09:32.335Z,2.77
2018-12-09T18:12:00.967Z,2.03
2018-12-09T18:14:30.431Z,2.30
2018-12-09T18:16:58.899Z,1.60
2018-12-09T18:19:27.425Z,1.40
2018-12-09T18:21:55.871Z,1.30
2018-12-09T18:24:24.497Z,1.50
2018-12-09T18:26:52.966Z,1.50
2018-12-09T18:29:21.455Z,1.50
2018-12-09T18:31:50.728Z,1.50
2018-12-09T18:34:19.715Z,1.30
2018-12-09T18:36:48.253Z,1.30
2018-12-09T18:39:16.790Z,1.40
2018-12-09T18:41:45.255Z,1.53
2018-12-09T18:44:13.771Z,1.60
2018-12-09T18:46:43.311Z,1.60
2018-12-09T18:49:11.808Z,2.17
2018-12-09T18:51:40.343Z,1.87
2018-12-09T18:54:08.818Z,1.43
2018-12-09T18:56:37.255Z,2.17
2018-12-09T18:59:05.772Z,1.87
2018-12-09T19:01:35.273Z,1.67
2018-12-09T19:04:03.852Z,1.50
2018-12-09T19:06:32.304Z,1.80
2018-12-09T19:09:00.751Z,1.87
2018-12-09T19:11:29.316Z,1.87
2018-12-09T19:13:57.765Z,1.73
2018-12-09T19:16:26.211Z,1.83
2018-12-09T19:18:54.671Z,1.30
2018-12-09T19:21:23.085Z,1.50
2018-12-09T19:23:51.503Z,1.70
2018-12-09T19:26:20.004Z,1.43
2018-12-09T19:28:48.484Z,1.77
2018-12-09T19:31:16.927Z,1.27
2018-12-09T19:33:45.381Z,1.30
2018-12-09T19:36:13.905Z,1.70
2018-12-09T19:38:42.391Z,1.43
2018-12-09T19:41:10.868Z,1.77
2018-12-09T19:43:39.297Z,3.93
2018-12-09T19:46:07.967Z,3.30
2018-12-09T19:48:36.493Z,3.07
2018-12-09T19:51:04.971Z,2.90
2018-12-09T19:53:33.395Z,3.50
2018-12-09T19:56:01.814Z,2.20
2018-12-09T19:58:30.339Z,4.80
2018-12-09T20:00:58.808Z,3.40
2018-12-09T20:03:27.245Z,3.00
2018-12-09T20:05:55.784Z,2.17
2018-12-09T20:08:24.245Z,1.23
2018-12-09T20:10:52.735Z,1.27
2018-12-09T20:13:21.235Z,1.00
2018-12-09T20:15:49.696Z,0.90
2018-12-09T20:18:18.163Z,1.33
2018-12-09T20:20:46.591Z,1.00
2018-12-09T20:23:15.002Z,1.00
2018-12-09T20:25:43.475Z,1.00
2018-12-09T20:28:11.948Z,0.80
2018-12-09T20:30:40.391Z,1.23
2018-12-09T20:33:08.859Z,1.00
2018-12-09T20:35:37.320Z,1.10
2018-12-09T20:38:05.747Z,1.30
2018-12-09T20:40:34.478Z,0.97
2018-12-09T20:43:02.977Z,1.00
2018-12-09T20:45:31.534Z,0.93
2018-12-09T20:48:00.067Z,0.93
2018-12-09T20:50:28.594Z,1.27
2018-12-09T20:52:57.134Z,1.50
2018-12-09T20:55:25.620Z,1.10
2018-12-09T20:57:54.117Z,1.20
2018-12-09T21:00:22.660Z,1.00
2018-12-09T21:02:51.179Z,1.20
2018-12-09T21:05:20.046Z,1.17
2018-12-09T21:07:48.533Z,1.40
2018-12-09T21:10:17.118Z,0.90
2018-12-09T21:12:45.576Z,1.13
2018-12-09T21:15:14.436Z,0.90
2018-12-09T21:17:42.963Z,1.10
2018-12-09T21:20:11.655Z,1.10
2018-12-09T21:22:40.151Z,1.00
2018-12-09T21:25:08.656Z,1.20
2018-12-09T21:27:37.135Z,3.00
2018-12-09T21:30:06.495Z,1.27
2018-12-09T21:32:35.045Z,1.00
2018-12-09T21:35:04.787Z,1.00
2018-12-09T21:37:33.271Z,1.13
2018-12-09T21:40:01.695Z,1.07
2018-12-09T21:42:30.151Z,1.00
2018-12-09T21:44:58.591Z,1.30
2018-12-09T21:47:27.014Z,1.00
2018-12-09T21:49:55.520Z,1.20
2018-12-09T21:52:23.960Z,1.57
2018-12-09T21:54:52.373Z,1.80
2018-12-09T21:57:20.824Z,1.40
2018-12-09T21:59:49.239Z,1.40
2018-12-09T22:02:17.707Z,1.67
2018-12-09T22:04:46.144Z,1.40
2018-12-09T22:07:14.588Z,1.37
2018-12-09T22:09:42.997Z,1.10
2018-12-09T22:12:11.435Z,1.30
2018-12-09T22:14:39.895Z,1.20
2018-12-09T22:17:08.292Z,1.20
2018-12-09T22:19:36.743Z,1.40
2018-12-09T22:22:05.172Z,1.97
2018-12-09T22:24:34.642Z,2.07
2018-12-09T22:27:03.147Z,2.03
2018-12-09T22:29:31.591Z,1.37
2018-12-09T22:32:00.047Z,1.70
2018-12-09T22:34:28.463Z,1.60
2018-12-09T22:36:57.983Z,1.80
2018-12-09T22:39:26.404Z,1.90
2018-12-09T22:41:54.872Z,1.77
2018-12-09T22:44:23.273Z,2.00
2018-12-09T22:46:52.722Z,2.20
2018-12-09T22:49:22.181Z,1.70
2018-12-09T22:51:50.679Z,1.33
2018-12-09T22:54:19.108Z,1.80
2018-12-09T22:56:47.511Z,1.70
2018-12-09T22:59:15.971Z,1.53
2018-12-09T23:01:50.067Z,2.87
2018-12-09T23:04:18.520Z,2.63
2018-12-09T23:06:47.000Z,5.23
2018-12-09T23:09:15.403Z,4.63
2018-12-09T23:11:43.840Z,7.40
2018-12-09T23:14:12.297Z,4.10
2018-12-09T23:16:40.847Z,5.23
2018-12-09T23:19:09.273Z,4.80
2018-12-09T23:21:37.680Z,3.90
2018-12-09T23:24:06.131Z,6.17
2018-12-09T23:26:34.544Z,4.40
2018-12-09T23:29:02.994Z,2.50
2018-12-09T23:31:31.567Z,3.50
2018-12-09T23:34:00.041Z,4.03
2018-12-09T23:36:28.456Z,2.53
2018-12-09T23:38:56.869Z,2.50
2018-12-09T23:41:25.340Z,2.23
2018-12-09T23:43:53.779Z,2.20
2018-12-09T23:46:22.188Z,2.37
2018-12-09T23:48:50.691Z,2.03
2018-12-09T23:51:19.131Z,2.50
2018-12-09T23:53:47.576Z,2.30
2018-12-09T23:56:16.051Z,2.30
2018-12-09T23:58:44.523Z,2.50
